sensor_id;sensor_type;location;lat;lon;timestamp;P1;durP1;ratioP1;P2;durP2;ratioP2
32242;SDS011;18731;42.830;24.390;2022-10-17T03:01:20;11.98;;;4.75;;
32242;SDS011;18731;42.830;24.390;2022-10-17T03:03:46;11.07;;;4.80;;
32242;SDS011;18731;42.830;24.390;2022-10-17T03:06:12;10.13;;;4.80;;
32242;SDS011;18731;42.830;24.390;2022-10-17T03:08:37;7.85;;;4.65;;
32242;SDS011;18731;42.830;24.390;2022-10-17T03:11:03;7.05;;;4.00;;
32242;SDS011;18731;42.830;24.390;2022-10-17T03:13:29;6.90;;;4.20;;
32242;SDS011;18731;42.830;24.390;2022-10-17T03:15:55;14.60;;;5.07;;
32242;SDS011;18731;42.830;24.390;2022-10-17T03:18:21;10.63;;;6.00;;
32242;SDS011;18731;42.830;24.390;2022-10-17T03:20:47;11.95;;;5.40;;
32242;SDS011;18731;42.830;24.390;2022-10-17T03:23:13;10.93;;;5.57;;
32242;SDS011;18731;42.830;24.390;2022-10-17T03:25:38;13.65;;;4.80;;
32242;SDS011;18731;42.830;24.390;2022-10-17T03:28:04;13.45;;;8.23;;
32242;SDS011;18731;42.830;24.390;2022-10-17T03:30:30;12.55;;;6.75;;
32242;SDS011;18731;42.830;24.390;2022-10-17T03:32:57;9.00;;;5.15;;
32242;SDS011;18731;42.830;24.390;2022-10-17T03:35:23;8.40;;;5.00;;
32242;SDS011;18731;42.830;24.390;2022-10-17T03:37:54;9.57;;;6.00;;
32242;SDS011;18731;42.830;24.390;2022-10-17T03:40:20;10.93;;;5.95;;
32242;SDS011;18731;42.830;24.390;2022-10-17T03:42:46;7.97;;;5.13;;
32242;SDS011;18731;42.830;24.390;2022-10-17T03:45:12;13.40;;;5.88;;
32242;SDS011;18731;42.830;24.390;2022-10-17T03:47:37;11.43;;;5.28;;
32242;SDS011;18731;42.830;24.390;2022-10-17T03:50:03;10.15;;;4.93;;
32242;SDS011;18731;42.830;24.390;2022-10-17T03:52:29;11.77;;;5.07;;
32242;SDS011;18731;42.830;24.390;2022-10-17T03:54:55;8.85;;;4.82;;
32242;SDS011;18731;42.830;24.390;2022-10-17T03:57:20;10.65;;;6.22;;
32242;SDS011;18731;42.830;24.390;2022-10-17T03:59:46;10.25;;;5.20;;
32242;SDS011;18731;42.830;24.390;2022-10-17T04:02:12;10.13;;;5.60;;
32242;SDS011;18731;42.830;24.390;2022-10-17T04:04:37;11.48;;;5.45;;
32242;SDS011;18731;42.830;24.390;2022-10-17T04:07:03;13.68;;;6.05;;
32242;SDS011;18731;42.830;24.390;2022-10-17T04:09:29;17.00;;;6.78;;
32242;SDS011;18731;42.830;24.390;2022-10-17T04:11:54;13.98;;;6.32;;
32242;SDS011;18731;42.830;24.390;2022-10-17T04:14:20;17.38;;;9.40;;
32242;SDS011;18731;42.830;24.390;2022-10-17T04:16:45;18.85;;;13.15;;
32242;SDS011;18731;42.830;24.390;2022-10-17T04:19:12;20.65;;;10.30;;
32242;SDS011;18731;42.830;24.390;2022-10-17T04:21:38;14.07;;;7.10;;
32242;SDS011;18731;42.830;24.390;2022-10-17T04:24:04;17.60;;;7.75;;
32242;SDS011;18731;42.830;24.390;2022-10-17T04:26:30;13.52;;;7.45;;
32242;SDS011;18731;42.830;24.390;2022-10-17T04:28:56;21.75;;;9.82;;
32242;SDS011;18731;42.830;24.390;2022-10-17T04:31:22;24.88;;;11.75;;
32242;SDS011;18731;42.830;24.390;2022-10-17T04:33:48;36.20;;;15.70;;
32242;SDS011;18731;42.830;24.390;2022-10-17T04:36:18;35.55;;;16.23;;
32242;SDS011;18731;42.830;24.390;2022-10-17T04:38:44;38.28;;;16.50;;
32242;SDS011;18731;42.830;24.390;2022-10-17T04:41:11;46.35;;;23.63;;
32242;SDS011;18731;42.830;24.390;2022-10-17T04:43:41;37.33;;;17.30;;
32242;SDS011;18731;42.830;24.390;2022-10-17T04:46:08;19.58;;;8.77;;
32242;SDS011;18731;42.830;24.390;2022-10-17T04:48:35;30.60;;;14.35;;
32242;SDS011;18731;42.830;24.390;2022-10-17T04:51:03;45.95;;;20.13;;
32242;SDS011;18731;42.830;24.390;2022-10-17T04:53:31;27.33;;;15.23;;
32242;SDS011;18731;42.830;24.390;2022-10-17T04:55:58;21.35;;;9.65;;
32242;SDS011;18731;42.830;24.390;2022-10-17T04:58:24;25.50;;;15.15;;
32242;SDS011;18731;42.830;24.390;2022-10-17T05:00:50;14.25;;;9.52;;
32242;SDS011;18731;42.830;24.390;2022-10-17T05:03:16;33.40;;;10.82;;
32242;SDS011;18731;42.830;24.390;2022-10-17T05:05:41;32.10;;;13.48;;
32242;SDS011;18731;42.830;24.390;2022-10-17T05:08:08;25.42;;;12.77;;
32242;SDS011;18731;42.830;24.390;2022-10-17T05:10:36;21.30;;;10.07;;
32242;SDS011;18731;42.830;24.390;2022-10-17T05:13:03;26.42;;;14.02;;
32242;SDS011;18731;42.830;24.390;2022-10-17T05:15:28;52.00;;;16.05;;
32242;SDS011;18731;42.830;24.390;2022-10-17T05:17:55;29.08;;;14.70;;
32242;SDS011;18731;42.830;24.390;2022-10-17T05:20:21;20.88;;;9.73;;
32242;SDS011;18731;42.830;24.390;2022-10-17T05:22:46;18.23;;;10.35;;
32242;SDS011;18731;42.830;24.390;2022-10-17T05:25:12;24.75;;;11.20;;
32242;SDS011;18731;42.830;24.390;2022-10-17T05:27:38;30.58;;;12.23;;
32242;SDS011;18731;42.830;24.390;2022-10-17T05:30:04;26.70;;;13.40;;
32242;SDS011;18731;42.830;24.390;2022-10-17T05:32:30;21.98;;;10.40;;
32242;SDS011;18731;42.830;24.390;2022-10-17T05:34:56;18.48;;;9.00;;
32242;SDS011;18731;42.830;24.390;2022-10-17T05:37:22;19.55;;;8.38;;
32242;SDS011;18731;42.830;24.390;2022-10-17T05:39:47;37.72;;;18.90;;
32242;SDS011;18731;42.830;24.390;2022-10-17T05:42:13;27.67;;;16.80;;
32242;SDS011;18731;42.830;24.390;2022-10-17T05:44:39;38.95;;;19.83;;
32242;SDS011;18731;42.830;24.390;2022-10-17T05:47:06;36.72;;;19.60;;
32242;SDS011;18731;42.830;24.390;2022-10-17T05:49:32;35.58;;;22.45;;
32242;SDS011;18731;42.830;24.390;2022-10-17T05:51:58;29.10;;;13.60;;
32242;SDS011;18731;42.830;24.390;2022-10-17T05:54:25;27.80;;;12.32;;
32242;SDS011;18731;42.830;24.390;2022-10-17T05:56:51;25.88;;;13.13;;
32242;SDS011;18731;42.830;24.390;2022-10-17T05:59:17;17.40;;;11.98;;
32242;SDS011;18731;42.830;24.390;2022-10-17T06:01:43;15.95;;;9.65;;
32242;SDS011;18731;42.830;24.390;2022-10-17T06:04:09;17.27;;;8.85;;
32242;SDS011;18731;42.830;24.390;2022-10-17T06:06:35;14.00;;;8.25;;
32242;SDS011;18731;42.830;24.390;2022-10-17T06:09:02;15.95;;;7.35;;
32242;SDS011;18731;42.830;24.390;2022-10-17T06:11:28;13.35;;;6.00;;
32242;SDS011;18731;42.830;24.390;2022-10-17T06:13:54;10.85;;;4.82;;
32242;SDS011;18731;42.830;24.390;2022-10-17T06:16:19;9.95;;;4.57;;
32242;SDS011;18731;42.830;24.390;2022-10-17T06:18:45;7.25;;;4.28;;
32242;SDS011;18731;42.830;24.390;2022-10-17T06:21:11;14.18;;;4.28;;
32242;SDS011;18731;42.830;24.390;2022-10-17T06:23:41;7.70;;;4.65;;
32242;SDS011;18731;42.830;24.390;2022-10-17T06:26:07;9.18;;;4.57;;
32242;SDS011;18731;42.830;24.390;2022-10-17T06:28:33;6.90;;;3.97;;
32242;SDS011;18731;42.830;24.390;2022-10-17T06:31:04;8.85;;;4.32;;
32242;SDS011;18731;42.830;24.390;2022-10-17T06:33:31;7.68;;;3.75;;
32242;SDS011;18731;42.830;24.390;2022-10-17T06:35:57;6.10;;;3.63;;
32242;SDS011;18731;42.830;24.390;2022-10-17T06:38:22;10.65;;;3.78;;
32242;SDS011;18731;42.830;24.390;2022-10-17T06:40:48;10.60;;;3.85;;
32242;SDS011;18731;42.830;24.390;2022-10-17T06:43:14;6.35;;;3.58;;
32242;SDS011;18731;42.830;24.390;2022-10-17T06:45:41;6.10;;;3.38;;
32242;SDS011;18731;42.830;24.390;2022-10-17T06:48:09;4.70;;;3.22;;
32242;SDS011;18731;42.830;24.390;2022-10-17T06:50:35;4.28;;;2.60;;
32242;SDS011;18731;42.830;24.390;2022-10-17T06:53:01;4.70;;;3.08;;
32242;SDS011;18731;42.830;24.390;2022-10-17T06:55:27;4.53;;;2.55;;
32242;SDS011;18731;42.830;24.390;2022-10-17T06:57:54;6.80;;;2.70;;
32242;SDS011;18731;42.830;24.390;2022-10-17T07:00:20;5.10;;;2.50;;
32242;SDS011;18731;42.830;24.390;2022-10-17T07:02:47;3.38;;;2.90;;
32242;SDS011;18731;42.830;24.390;2022-10-17T07:05:13;5.95;;;2.40;;
32242;SDS011;18731;42.830;24.390;2022-10-17T07:07:39;6.07;;;2.45;;
32242;SDS011;18731;42.830;24.390;2022-10-17T07:10:05;7.82;;;2.13;;
32242;SDS011;18731;42.830;24.390;2022-10-17T07:12:34;5.68;;;2.40;;
32242;SDS011;18731;42.830;24.390;2022-10-17T07:15:00;12.68;;;7.32;;
32242;SDS011;18731;42.830;24.390;2022-10-17T07:17:28;8.13;;;3.30;;
32242;SDS011;18731;42.830;24.390;2022-10-17T07:19:54;5.38;;;3.40;;
32242;SDS011;18731;42.830;24.390;2022-10-17T07:22:20;10.20;;;3.97;;
32242;SDS011;18731;42.830;24.390;2022-10-17T07:24:46;15.80;;;4.65;;
32242;SDS011;18731;42.830;24.390;2022-10-17T07:27:12;8.60;;;2.90;;
32242;SDS011;18731;42.830;24.390;2022-10-17T07:29:38;8.30;;;3.08;;
32242;SDS011;18731;42.830;24.390;2022-10-17T07:32:04;4.80;;;2.80;;
32242;SDS011;18731;42.830;24.390;2022-10-17T07:34:33;3.47;;;2.63;;
32242;SDS011;18731;42.830;24.390;2022-10-17T07:36:59;10.32;;;2.80;;
32242;SDS011;18731;42.830;24.390;2022-10-17T07:39:26;9.73;;;2.72;;
32242;SDS011;18731;42.830;24.390;2022-10-17T07:41:51;4.22;;;2.10;;
32242;SDS011;18731;42.830;24.390;2022-10-17T07:44:17;4.65;;;2.50;;
32242;SDS011;18731;42.830;24.390;2022-10-17T07:46:43;8.77;;;2.58;;
32242;SDS011;18731;42.830;24.390;2022-10-17T07:49:09;5.65;;;2.38;;
32242;SDS011;18731;42.830;24.390;2022-10-17T07:51:34;9.20;;;2.75;;
32242;SDS011;18731;42.830;24.390;2022-10-17T07:54:00;4.75;;;3.10;;
32242;SDS011;18731;42.830;24.390;2022-10-17T07:56:25;9.52;;;2.67;;
32242;SDS011;18731;42.830;24.390;2022-10-17T07:58:54;4.38;;;2.50;;
32242;SDS011;18731;42.830;24.390;2022-10-17T08:01:21;4.32;;;2.42;;
32242;SDS011;18731;42.830;24.390;2022-10-17T08:03:46;5.25;;;2.78;;
32242;SDS011;18731;42.830;24.390;2022-10-17T08:06:15;5.22;;;2.40;;
32242;SDS011;18731;42.830;24.390;2022-10-17T08:08:40;5.10;;;2.80;;
32242;SDS011;18731;42.830;24.390;2022-10-17T08:11:08;11.95;;;2.70;;
32242;SDS011;18731;42.830;24.390;2022-10-17T08:13:35;5.68;;;3.10;;
32242;SDS011;18731;42.830;24.390;2022-10-17T08:16:02;7.60;;;3.30;;
32242;SDS011;18731;42.830;24.390;2022-10-17T08:18:30;5.13;;;3.33;;
32242;SDS011;18731;42.830;24.390;2022-10-17T08:20:59;8.98;;;4.40;;
32242;SDS011;18731;42.830;24.390;2022-10-17T08:23:26;6.63;;;4.20;;
32242;SDS011;18731;42.830;24.390;2022-10-17T08:25:52;6.88;;;4.43;;
32242;SDS011;18731;42.830;24.390;2022-10-17T08:28:17;5.68;;;3.72;;
32242;SDS011;18731;42.830;24.390;2022-10-17T08:30:43;8.50;;;5.18;;
32242;SDS011;18731;42.830;24.390;2022-10-17T08:33:09;9.23;;;4.47;;
32242;SDS011;18731;42.830;24.390;2022-10-17T08:35:34;10.27;;;4.45;;
32242;SDS011;18731;42.830;24.390;2022-10-17T08:38:00;6.88;;;4.05;;
32242;SDS011;18731;42.830;24.390;2022-10-17T08:40:27;9.80;;;3.80;;
32242;SDS011;18731;42.830;24.390;2022-10-17T08:43:02;9.68;;;4.45;;
32242;SDS011;18731;42.830;24.390;2022-10-17T08:45:57;8.63;;;3.75;;
32242;SDS011;18731;42.830;24.390;2022-10-17T08:48:27;5.55;;;2.83;;
32242;SDS011;18731;42.830;24.390;2022-10-17T08:53:50;5.32;;;2.10;;
32242;SDS011;18731;42.830;24.390;2022-10-17T08:56:20;5.20;;;2.40;;
32242;SDS011;18731;42.830;24.390;2022-10-17T08:59:03;3.97;;;1.85;;
32242;SDS011;18731;42.830;24.390;2022-10-17T09:08:17;2.58;;;1.73;;
32242;SDS011;18731;42.830;24.390;2022-10-17T09:13:35;4.38;;;1.98;;
32242;SDS011;18731;42.830;24.390;2022-10-17T09:16:19;4.28;;;2.10;;
32242;SDS011;18731;42.830;24.390;2022-10-17T09:18:59;4.28;;;1.95;;
32242;SDS011;18731;42.830;24.390;2022-10-17T09:24:03;3.03;;;1.90;;
32242;SDS011;18731;42.830;24.390;2022-10-17T09:26:37;3.13;;;1.88;;
32242;SDS011;18731;42.830;24.390;2022-10-17T09:29:04;5.65;;;1.75;;
32242;SDS011;18731;42.830;24.390;2022-10-17T09:31:41;3.55;;;2.00;;
32242;SDS011;18731;42.830;24.390;2022-10-17T09:34:11;5.90;;;2.00;;
32242;SDS011;18731;42.830;24.390;2022-10-17T09:36:38;4.80;;;2.10;;
32242;SDS011;18731;42.830;24.390;2022-10-17T09:39:08;2.45;;;1.70;;
32242;SDS011;18731;42.830;24.390;2022-10-17T09:41:39;2.67;;;1.50;;
32242;SDS011;18731;42.830;24.390;2022-10-17T09:47:18;2.38;;;1.67;;
32242;SDS011;18731;42.830;24.390;2022-10-17T09:49:48;6.25;;;1.88;;
32242;SDS011;18731;42.830;24.390;2022-10-17T09:52:18;5.35;;;2.03;;
32242;SDS011;18731;42.830;24.390;2022-10-17T09:55:15;7.97;;;1.77;;
32242;SDS011;18731;42.830;24.390;2022-10-17T09:57:51;2.70;;;1.77;;
32242;SDS011;18731;42.830;24.390;2022-10-17T10:00:30;3.70;;;1.77;;
32242;SDS011;18731;42.830;24.390;2022-10-17T10:05:34;3.20;;;2.00;;
32242;SDS011;18731;42.830;24.390;2022-10-17T10:08:01;2.17;;;1.92;;
32242;SDS011;18731;42.830;24.390;2022-10-17T10:10:29;5.78;;;1.73;;
32242;SDS011;18731;42.830;24.390;2022-10-17T10:13:04;4.70;;;2.05;;
32242;SDS011;18731;42.830;24.390;2022-10-17T10:15:43;2.90;;;2.10;;
32242;SDS011;18731;42.830;24.390;2022-10-17T10:23:40;4.10;;;2.00;;
32242;SDS011;18731;42.830;24.390;2022-10-17T10:28:51;9.65;;;2.35;;
32242;SDS011;18731;42.830;24.390;2022-10-17T10:31:26;4.20;;;2.33;;
32242;SDS011;18731;42.830;24.390;2022-10-17T10:34:13;3.78;;;2.40;;
32242;SDS011;18731;42.830;24.390;2022-10-17T10:36:48;5.10;;;2.50;;
32242;SDS011;18731;42.830;24.390;2022-10-17T10:39:36;3.17;;;2.20;;
32242;SDS011;18731;42.830;24.390;2022-10-17T10:42:04;7.07;;;2.60;;
32242;SDS011;18731;42.830;24.390;2022-10-17T10:44:33;5.88;;;2.50;;
32242;SDS011;18731;42.830;24.390;2022-10-17T10:47:06;6.00;;;2.42;;
32242;SDS011;18731;42.830;24.390;2022-10-17T11:01:08;9.00;;;2.60;;
32242;SDS011;18731;42.830;24.390;2022-10-17T11:07:03;3.95;;;1.98;;
32242;SDS011;18731;42.830;24.390;2022-10-17T11:17:54;4.28;;;2.78;;
32242;SDS011;18731;42.830;24.390;2022-10-17T11:23:45;6.88;;;2.33;;
32242;SDS011;18731;42.830;24.390;2022-10-17T11:26:16;2.75;;;2.20;;
32242;SDS011;18731;42.830;24.390;2022-10-17T11:28:53;6.88;;;2.70;;
32242;SDS011;18731;42.830;24.390;2022-10-17T11:31:22;5.00;;;2.60;;
32242;SDS011;18731;42.830;24.390;2022-10-17T11:36:25;9.18;;;2.70;;
32242;SDS011;18731;42.830;24.390;2022-10-17T11:41:45;6.07;;;2.57;;
32242;SDS011;18731;42.830;24.390;2022-10-17T11:46:53;6.60;;;3.00;;
32242;SDS011;18731;42.830;24.390;2022-10-17T11:49:23;3.92;;;2.58;;
32242;SDS011;18731;42.830;24.390;2022-10-17T11:51:59;9.50;;;3.30;;
32242;SDS011;18731;42.830;24.390;2022-10-17T11:54:49;4.00;;;2.42;;
32242;SDS011;18731;42.830;24.390;2022-10-17T12:00:24;6.28;;;2.50;;
32242;SDS011;18731;42.830;24.390;2022-10-17T12:06:01;6.40;;;2.58;;
32242;SDS011;18731;42.830;24.390;2022-10-17T12:08:44;4.95;;;2.50;;
32242;SDS011;18731;42.830;24.390;2022-10-17T12:18:14;5.43;;;2.50;;
32242;SDS011;18731;42.830;24.390;2022-10-17T12:22:46;6.55;;;2.53;;
32242;SDS011;18731;42.830;24.390;2022-10-17T12:25:25;4.05;;;2.80;;
32242;SDS011;18731;42.830;24.390;2022-10-17T12:30:30;5.80;;;2.83;;
32242;SDS011;18731;42.830;24.390;2022-10-17T12:35:46;6.50;;;2.92;;
32242;SDS011;18731;42.830;24.390;2022-10-17T12:38:18;8.25;;;2.85;;
32242;SDS011;18731;42.830;24.390;2022-10-17T12:40:54;10.38;;;2.40;;
32242;SDS011;18731;42.830;24.390;2022-10-17T12:59:13;5.72;;;2.10;;
32242;SDS011;18731;42.830;24.390;2022-10-17T13:01:53;12.20;;;2.17;;
32242;SDS011;18731;42.830;24.390;2022-10-17T13:04:25;5.90;;;2.05;;
32242;SDS011;18731;42.830;24.390;2022-10-17T13:06:54;3.90;;;2.22;;
32242;SDS011;18731;42.830;24.390;2022-10-17T13:11:58;4.40;;;2.08;;
32242;SDS011;18731;42.830;24.390;2022-10-17T13:14:27;4.28;;;2.35;;
32242;SDS011;18731;42.830;24.390;2022-10-17T13:16:55;2.22;;;2.00;;
32242;SDS011;18731;42.830;24.390;2022-10-17T13:19:24;5.70;;;2.08;;
32242;SDS011;18731;42.830;24.390;2022-10-17T13:22:00;5.55;;;2.05;;
32242;SDS011;18731;42.830;24.390;2022-10-17T13:24:31;2.10;;;1.90;;
32242;SDS011;18731;42.830;24.390;2022-10-17T13:26:59;3.28;;;2.05;;
32242;SDS011;18731;42.830;24.390;2022-10-17T13:29:26;11.55;;;2.45;;
32242;SDS011;18731;42.830;24.390;2022-10-17T13:32:00;10.23;;;2.35;;
32242;SDS011;18731;42.830;24.390;2022-10-17T13:34:31;4.68;;;2.30;;
32242;SDS011;18731;42.830;24.390;2022-10-17T13:36:58;6.03;;;2.15;;
32242;SDS011;18731;42.830;24.390;2022-10-17T13:39:32;2.92;;;2.10;;
32242;SDS011;18731;42.830;24.390;2022-10-17T13:42:02;11.55;;;2.35;;
32242;SDS011;18731;42.830;24.390;2022-10-17T13:44:31;5.18;;;2.30;;
32242;SDS011;18731;42.830;24.390;2022-10-17T13:46:58;4.13;;;2.30;;
32242;SDS011;18731;42.830;24.390;2022-10-17T13:52:05;6.40;;;2.17;;
32242;SDS011;18731;42.830;24.390;2022-10-17T13:54:40;8.43;;;2.30;;
32242;SDS011;18731;42.830;24.390;2022-10-17T13:57:20;8.05;;;2.20;;
32242;SDS011;18731;42.830;24.390;2022-10-17T13:59:57;16.80;;;1.98;;
32242;SDS011;18731;42.830;24.390;2022-10-17T14:02:29;12.70;;;2.60;;
32242;SDS011;18731;42.830;24.390;2022-10-17T14:05:10;8.80;;;2.20;;
32242;SDS011;18731;42.830;24.390;2022-10-17T14:12:51;6.63;;;2.60;;
32242;SDS011;18731;42.830;24.390;2022-10-17T14:15:20;2.85;;;2.20;;
32242;SDS011;18731;42.830;24.390;2022-10-17T14:17:55;7.88;;;2.15;;
32242;SDS011;18731;42.830;24.390;2022-10-17T14:20:24;8.70;;;2.30;;
32242;SDS011;18731;42.830;24.390;2022-10-17T14:22:53;8.75;;;2.22;;
32242;SDS011;18731;42.830;24.390;2022-10-17T14:30:40;19.08;;;2.50;;
32242;SDS011;18731;42.830;24.390;2022-10-17T14:33:27;17.55;;;2.63;;
32242;SDS011;18731;42.830;24.390;2022-10-17T14:35:55;9.23;;;4.80;;
32242;SDS011;18731;42.830;24.390;2022-10-17T14:38:23;13.40;;;2.20;;
32242;SDS011;18731;42.830;24.390;2022-10-17T14:40:50;37.30;;;2.67;;
32242;SDS011;18731;42.830;24.390;2022-10-17T14:43:21;8.52;;;2.30;;
32242;SDS011;18731;42.830;24.390;2022-10-17T14:45:49;6.65;;;2.10;;
32242;SDS011;18731;42.830;24.390;2022-10-17T14:48:16;4.70;;;2.60;;
32242;SDS011;18731;42.830;24.390;2022-10-17T14:51:06;6.45;;;2.38;;
32242;SDS011;18731;42.830;24.390;2022-10-17T14:53:36;12.43;;;3.22;;
32242;SDS011;18731;42.830;24.390;2022-10-17T14:56:03;9.88;;;2.72;;
32242;SDS011;18731;42.830;24.390;2022-10-17T14:58:44;17.63;;;3.35;;
32242;SDS011;18731;42.830;24.390;2022-10-17T15:01:10;8.93;;;3.17;;
32242;SDS011;18731;42.830;24.390;2022-10-17T15:03:36;8.85;;;4.97;;
32242;SDS011;18731;42.830;24.390;2022-10-17T15:06:08;8.60;;;5.40;;
32242;SDS011;18731;42.830;24.390;2022-10-17T15:08:43;8.77;;;5.07;;
32242;SDS011;18731;42.830;24.390;2022-10-17T15:11:09;19.40;;;7.57;;
32242;SDS011;18731;42.830;24.390;2022-10-17T15:13:35;15.38;;;6.10;;
32242;SDS011;18731;42.830;24.390;2022-10-17T15:16:01;18.35;;;4.50;;
32242;SDS011;18731;42.830;24.390;2022-10-17T15:18:46;12.75;;;5.60;;
32242;SDS011;18731;42.830;24.390;2022-10-17T15:21:14;17.95;;;9.38;;
32242;SDS011;18731;42.830;24.390;2022-10-17T15:23:41;8.95;;;4.85;;
32242;SDS011;18731;42.830;24.390;2022-10-17T15:26:11;11.77;;;6.93;;
32242;SDS011;18731;42.830;24.390;2022-10-17T15:28:40;11.73;;;5.22;;
32242;SDS011;18731;42.830;24.390;2022-10-17T15:31:07;13.68;;;9.48;;
32242;SDS011;18731;42.830;24.390;2022-10-17T15:33:35;18.63;;;8.25;;
32242;SDS011;18731;42.830;24.390;2022-10-17T15:36:01;15.65;;;10.23;;
32242;SDS011;18731;42.830;24.390;2022-10-17T15:38:27;17.02;;;11.68;;
32242;SDS011;18731;42.830;24.390;2022-10-17T15:40:52;28.08;;;16.75;;
32242;SDS011;18731;42.830;24.390;2022-10-17T15:43:18;26.67;;;13.48;;
32242;SDS011;18731;42.830;24.390;2022-10-17T15:45:43;21.63;;;10.82;;
32242;SDS011;18731;42.830;24.390;2022-10-17T15:48:09;19.65;;;8.40;;
32242;SDS011;18731;42.830;24.390;2022-10-17T15:50:51;15.13;;;6.82;;
32242;SDS011;18731;42.830;24.390;2022-10-17T15:53:17;15.35;;;6.60;;
32242;SDS011;18731;42.830;24.390;2022-10-17T15:55:43;14.07;;;6.72;;
32242;SDS011;18731;42.830;24.390;2022-10-17T15:58:11;18.50;;;7.18;;
32242;SDS011;18731;42.830;24.390;2022-10-17T16:00:40;29.52;;;13.63;;
32242;SDS011;18731;42.830;24.390;2022-10-17T16:03:06;15.95;;;6.88;;
32242;SDS011;18731;42.830;24.390;2022-10-17T16:05:31;13.98;;;7.43;;
32242;SDS011;18731;42.830;24.390;2022-10-17T16:07:57;14.98;;;6.88;;
32242;SDS011;18731;42.830;24.390;2022-10-17T16:10:23;13.40;;;7.38;;
32242;SDS011;18731;42.830;24.390;2022-10-17T16:12:50;13.82;;;6.25;;
32242;SDS011;18731;42.830;24.390;2022-10-17T16:15:20;23.60;;;7.55;;
32242;SDS011;18731;42.830;24.390;2022-10-17T16:17:51;13.18;;;7.10;;
32242;SDS011;18731;42.830;24.390;2022-10-17T16:20:18;15.32;;;6.80;;
32242;SDS011;18731;42.830;24.390;2022-10-17T16:22:44;13.82;;;5.90;;
32242;SDS011;18731;42.830;24.390;2022-10-17T16:25:24;14.95;;;7.68;;
32242;SDS011;18731;42.830;24.390;2022-10-17T16:27:52;48.40;;;24.90;;
32242;SDS011;18731;42.830;24.390;2022-10-17T16:30:20;26.48;;;11.85;;
32242;SDS011;18731;42.830;24.390;2022-10-17T16:32:46;16.52;;;9.18;;
32242;SDS011;18731;42.830;24.390;2022-10-17T16:35:20;20.13;;;11.70;;
32242;SDS011;18731;42.830;24.390;2022-10-17T16:37:48;38.40;;;14.13;;
32242;SDS011;18731;42.830;24.390;2022-10-17T16:40:14;29.98;;;13.50;;
32242;SDS011;18731;42.830;24.390;2022-10-17T16:42:40;26.83;;;14.82;;
32242;SDS011;18731;42.830;24.390;2022-10-17T16:45:06;23.92;;;10.80;;
32242;SDS011;18731;42.830;24.390;2022-10-17T16:47:33;18.30;;;9.55;;
32242;SDS011;18731;42.830;24.390;2022-10-17T16:49:58;13.35;;;7.57;;
32242;SDS011;18731;42.830;24.390;2022-10-17T16:52:24;15.60;;;9.32;;
32242;SDS011;18731;42.830;24.390;2022-10-17T16:54:50;13.93;;;6.88;;
32242;SDS011;18731;42.830;24.390;2022-10-17T16:57:15;17.33;;;7.05;;
32242;SDS011;18731;42.830;24.390;2022-10-17T16:59:41;17.02;;;6.72;;
32242;SDS011;18731;42.830;24.390;2022-10-17T17:02:08;14.80;;;8.48;;
32242;SDS011;18731;42.830;24.390;2022-10-17T17:04:35;32.40;;;17.02;;
32242;SDS011;18731;42.830;24.390;2022-10-17T17:07:01;40.65;;;23.48;;
32242;SDS011;18731;42.830;24.390;2022-10-17T17:09:26;23.02;;;12.88;;
32242;SDS011;18731;42.830;24.390;2022-10-17T17:11:52;18.10;;;9.45;;
32242;SDS011;18731;42.830;24.390;2022-10-17T17:14:17;52.63;;;22.75;;
32242;SDS011;18731;42.830;24.390;2022-10-17T17:16:43;41.28;;;19.10;;
32242;SDS011;18731;42.830;24.390;2022-10-17T17:19:12;23.80;;;10.80;;
32242;SDS011;18731;42.830;24.390;2022-10-17T17:21:41;70.00;;;27.70;;
32242;SDS011;18731;42.830;24.390;2022-10-17T17:24:17;21.42;;;10.05;;
32242;SDS011;18731;42.830;24.390;2022-10-17T17:26:48;29.85;;;12.02;;
32242;SDS011;18731;42.830;24.390;2022-10-17T17:29:16;55.30;;;22.30;;
32242;SDS011;18731;42.830;24.390;2022-10-17T17:31:41;69.57;;;23.88;;
32242;SDS011;18731;42.830;24.390;2022-10-17T17:34:07;22.33;;;11.05;;
32242;SDS011;18731;42.830;24.390;2022-10-17T17:36:34;30.38;;;15.18;;
32242;SDS011;18731;42.830;24.390;2022-10-17T17:39:02;29.80;;;13.10;;
32242;SDS011;18731;42.830;24.390;2022-10-17T17:41:29;22.42;;;12.50;;
32242;SDS011;18731;42.830;24.390;2022-10-17T17:43:55;29.52;;;13.70;;
32242;SDS011;18731;42.830;24.390;2022-10-17T17:46:22;15.88;;;8.43;;
32242;SDS011;18731;42.830;24.390;2022-10-17T17:48:48;27.30;;;15.60;;
32242;SDS011;18731;42.830;24.390;2022-10-17T17:51:17;26.63;;;10.98;;
32242;SDS011;18731;42.830;24.390;2022-10-17T17:53:44;21.33;;;11.20;;
32242;SDS011;18731;42.830;24.390;2022-10-17T17:56:11;31.58;;;14.95;;
32242;SDS011;18731;42.830;24.390;2022-10-17T17:58:40;36.38;;;16.10;;
32242;SDS011;18731;42.830;24.390;2022-10-17T18:01:10;55.03;;;27.20;;
32242;SDS011;18731;42.830;24.390;2022-10-17T18:03:42;16.00;;;6.53;;
32242;SDS011;18731;42.830;24.390;2022-10-17T18:06:09;24.80;;;10.45;;
32242;SDS011;18731;42.830;24.390;2022-10-17T18:08:35;12.60;;;7.57;;
32242;SDS011;18731;42.830;24.390;2022-10-17T18:11:01;16.00;;;9.10;;
32242;SDS011;18731;42.830;24.390;2022-10-17T18:13:27;10.65;;;6.50;;
32242;SDS011;18731;42.830;24.390;2022-10-17T18:15:56;15.35;;;8.20;;
32242;SDS011;18731;42.830;24.390;2022-10-17T18:18:24;11.32;;;6.63;;
32242;SDS011;18731;42.830;24.390;2022-10-17T18:20:51;11.65;;;6.80;;
32242;SDS011;18731;42.830;24.390;2022-10-17T18:23:18;16.02;;;10.32;;
32242;SDS011;18731;42.830;24.390;2022-10-17T18:25:55;11.18;;;7.65;;
32242;SDS011;18731;42.830;24.390;2022-10-17T18:28:22;13.70;;;5.85;;
32242;SDS011;18731;42.830;24.390;2022-10-17T18:30:49;8.48;;;5.03;;
32242;SDS011;18731;42.830;24.390;2022-10-17T18:33:14;7.95;;;4.78;;
32242;SDS011;18731;42.830;24.390;2022-10-17T18:35:40;11.88;;;5.20;;
32242;SDS011;18731;42.830;24.390;2022-10-17T18:38:06;7.55;;;4.63;;
32242;SDS011;18731;42.830;24.390;2022-10-17T18:40:32;4.38;;;3.88;;
32242;SDS011;18731;42.830;24.390;2022-10-17T18:42:58;8.60;;;3.72;;
32242;SDS011;18731;42.830;24.390;2022-10-17T18:45:24;9.02;;;3.90;;
32242;SDS011;18731;42.830;24.390;2022-10-17T18:47:49;7.80;;;4.70;;
32242;SDS011;18731;42.830;24.390;2022-10-17T18:50:18;7.78;;;4.38;;
32242;SDS011;18731;42.830;24.390;2022-10-17T18:52:48;13.30;;;6.07;;
32242;SDS011;18731;42.830;24.390;2022-10-17T18:55:15;7.68;;;4.35;;
32242;SDS011;18731;42.830;24.390;2022-10-17T18:57:44;5.47;;;3.55;;
32242;SDS011;18731;42.830;24.390;2022-10-17T19:00:13;6.10;;;3.05;;
32242;SDS011;18731;42.830;24.390;2022-10-17T19:02:40;8.38;;;4.35;;
32242;SDS011;18731;42.830;24.390;2022-10-17T19:05:06;15.85;;;8.57;;
32242;SDS011;18731;42.830;24.390;2022-10-17T19:07:32;6.82;;;4.60;;
32242;SDS011;18731;42.830;24.390;2022-10-17T19:09:57;5.32;;;4.10;;
32242;SDS011;18731;42.830;24.390;2022-10-17T19:12:23;9.63;;;4.88;;
32242;SDS011;18731;42.830;24.390;2022-10-17T19:14:48;9.60;;;4.50;;
32242;SDS011;18731;42.830;24.390;2022-10-17T19:17:15;14.48;;;7.00;;
32242;SDS011;18731;42.830;24.390;2022-10-17T19:19:41;25.00;;;9.90;;
32242;SDS011;18731;42.830;24.390;2022-10-17T19:22:06;29.75;;;15.32;;
32242;SDS011;18731;42.830;24.390;2022-10-17T19:24:33;9.65;;;6.28;;
32242;SDS011;18731;42.830;24.390;2022-10-17T19:26:59;10.15;;;4.78;;
32242;SDS011;18731;42.830;24.390;2022-10-17T19:29:29;15.00;;;5.82;;